Les vidéos Equidia

Discipline Date Nom de la Course Hippodrome Alloc Jockey/Driver Dist Corde Terrain Oeil Valeur Stalle Class Video
Plat 2019-03-21 DE TRIE-CHATEAU SAINT-CLOUD 16.000 euros M.MICHEL 2400 G Lourd 21 5 07
Plat 2019-03-13 DUNKERQUE LE CROISE-LAROCHE 15.000 euros C.PACAUT 2500 G Lourd 21 1 09
Plat 2019-02-25 LYON-LA SOIE MARSEILLE-BORELY 16.000 euros S.RUIS 2100 G 21 5 11
Plat 2019-02-13 DES GLYCINES CAGNES-SUR-MER 17.000 euros E.LAFFARGUE 2500 G Souple 21 9 07
Plat 2019-01-30 CIMIEZ CAGNES-SUR-MER 26.000 euros A.COUTIER 2500 G Souple 21 5 12
Plat 2019-01-19 BOUTONS D'OR CAGNES-SUR-MER 17.000 euros E.LAFFARGUE 2400 G Très souple 21 1 05
Plat 2018-11-10 ROSIERES SALINE STRASBOURG 14.000 euros A.MASSIN 2350 D Souple 21 1 09
Plat 2018-10-30 MAISON BLANCHE SAINT-CLOUD 19.000 euros A.BOUVIER 3000 G Très souple 21 5 16
Plat 2018-10-13 ECURIES CHATEAU MAISONS-LAFFITTE 26.000 euros J.CLAUDIC 2400 G Souple 21 8 13
Plat 2018-10-04 TIGERTAIL NANTES 18.000 euros A.MASSIN 2400 G Souple 21 11 Non partant
Plat 2018-09-26 GARGENVILLE MAISONS-LAFFITTE 23.000 euros M.MICHEL 2400 G Souple 21 3 05
Plat 2018-05-05 MAGNY-EN-VEXIN MAISONS-LAFFITTE 19.000 euros A.MASSIN 2400 G Bon 21 4 05
Plat 2018-04-23 MUSEE VOITURE COMPIEGNE 52.000 euros M.MICHEL 2400 G Bon souple 21 1 08
Plat 2018-04-11 CHATEAU D'EAU LONGCHAMP 19.000 euros M.MICHEL 2400 D Lourd 21 2 01
Plat 2018-03-29 ST. FLORENT NANTES 18.000 euros M.ANDROUIN 2400 G Très lourd 21 1 05
Plat 2018-03-19 D'AIGUISY COMPIEGNE 19.000 euros M.MICHEL 2400 G Très lourd 21 3 01
Plat 2018-03-12 FORET COMPIEGNE COMPIEGNE 18.000 euros M.MICHEL 2400 G Très lourd 21 3 02
Plat 2018-02-24 DU CHEIRON CAGNES-SUR-MER 20.000 euros B.PANICUCCI 3200 G Collant 21 12 11
Plat 2018-02-07 LORD DU SUD CAGNES-SUR-MER 20.000 euros A.HAMELIN 3200 G Très souple 21 11 10
Plat 2018-01-31 RAUBA CAPEU CAGNES-SUR-MER 52.000 euros E.HARDOUIN 2500 G Très souple 21 12 13
Plat 2018-01-16 BOUTONS D'OR CAGNES-SUR-MER 17.000 euros A.LEMAITRE 2400 G Très souple 21 3 08
Plat 2017-12-19 FOSSES CHANTILLY 24.000 A.LEMAITRE 2700 D PSF STANDARD 21 7 12
Plat 2017-11-17 R.LA VAISSIERE SAINT-CLOUD 19.000 K.BARBAUD 2400 G Très souple 21 6 05
Plat 2017-10-30 HP DE MARSEILLE MARSEILLE-BORELY 52.000 A.HAMELIN 2450 G Bon souple 21 5
Plat 2017-10-03 D'EMEVILLE COMPIEGNE 19.000 C.PACAUT 2400 G collant 21 6 02
Plat 2017-09-28 LOISELEUR COMPIEGNE 52.000 A.MOREAU 2000 G très souple 21 4 14
Plat 2017-09-13 FAUSSES REPOSES SAINT-CLOUD 19.000 A.MOREAU 2400 G très souple 21 5 05
Plat 2017-09-01 DES PEUPLIERS FONTAINEBLEAU 17.000 D.ARTU 3000 G bon 21 5 01
Plat 2017-08-03 FROM.GRAINDORGE CLAIREFONTAINE 52.000 A.HAMELIN 2400 D bon 21 13 14
Plat 2017-07-20 MONTMARAULT VICHY 15.000 C.SOUMILLON 2800 D souple 21 10 09
Plat 2017-04-14 DU PRINTEMPS LYON-PARILLY 24.000 A.HAMELIN 2400 G bon 21 3 06
Plat 2017-03-27 DE L'OISE COMPIEGNE 52.000 A.HAMELIN 2400 G très souple 21 4 04
Plat 2017-03-11 PAYS BASQUE SAINT-CLOUD 52.000 A.HAMELIN 2400 G très lourd 21 1 01
Plat 2017-02-25 DU CHEIRON CAGNES-SUR-MER 19.000 - 3200 G bon 21 3 07
Plat 2017-02-08 LORD DU SUD CAGNES-SUR-MER 19.000 C.SOUMILLON 3200 G souple 21 8 05
Plat 2017-01-20 TOURETTES/LOUP CAGNES-SUR-MER 19.000 E.LEBRETON 3200 G bon souple 21 1 03
Plat 2016-12-08 BEAUFAIS DEAUVILLE 24.000 D.BREUX 3400 D 21 14 14
Plat 2016-11-24 HCP DE LA MAINE ANGERS EVENTARD 18.000 D.BREUX 3000 D collant 21 14 01
Plat 2016-10-30 LIGUE CHEVAL SAINT-CLOUD 52.000 D.BREUX 3100 D souple 21 5
Plat 2016-10-13 DINAROBIN LYON-PARILLY 52.000 D.BREUX 3150 G bon souple 21 9 03
Plat 2016-10-07 VERSAILLES MAISONS-LAFFITTE 19.000 K.NAIMI 2100 G bon 21 8 02
Plat 2016-09-29 VALLEE AUTOMNE COMPIEGNE 26.000 A.BADEL 2000 G souple 21 16 13
Plat 2016-06-25 CIRRUS AIGLES COMPIEGNE 52.000 A.BADEL 2400 G collant 21 2 16
Plat 2016-05-11 JARDY SAINT-CLOUD 52.000 G.BENOIST 2100 G bon souple 21 12 NP
Plat 2016-04-26 AUXERRE MAISONS-LAFFITTE 52.000 PC.BOUDOT 2400 G bon 21 9 10
Plat 2016-04-15 DU LOUP PENDU LYON-PARILLY 20.000 PC.BOUDOT 2400 G très souple 21 7 01
Plat 2016-03-29 DE L'OISE COMPIEGNE 52.000 M.BARZALONA 2400 G lourd 21 9 07
Plat 2016-03-24 DU PERIGORD SAINT-CLOUD 26.000 PC.BOUDOT 2100 G bon 21 12 NP
Plat 2016-03-09 CROIX ST-OUEN COMPIEGNE 19.000 PC.BOUDOT 2000 G lourd 21 7 01
Plat 2016-02-29 PARILLY MARSEILLE-BORELY 26.000 PC.BOUDOT 2100 G lourd 21 10 10
Plat 2016-02-10 LAVANDOU CAGNES-SUR-MER 19.000 PC.BOUDOT 2150 G collant 21 5 02
Plat 2016-01-28 OSTENDE CAGNES-SUR-MER 19.000 L.GUTIERREZ 2150 G souple 21 4 09
Plat 2016-01-19 BOUTONS D'OR CAGNES-SUR-MER 17.000 A.BADEL 2400 G 21 6 11
Plat 2015-11-21 PARC BORELY LYON-PARILLY 30.000 J.HEITZ 2200 G lourd 21 1 07
Plat 2015-11-11 HA. STRASBOURG STRASBOURG 18.000 J.HEITZ 2100 D bon souple 21 1 03
Plat 2015-10-31 NAIADES MAISONS-LAFFITTE 19.000 M.ROLLANDO 2000 D très souple 21 7 09
Plat 2015-10-14 CHEVREUSE SAINT-CLOUD 19.000 J.HEITZ 2100 G bon souple 21 7 07
Plat 2015-09-24 CARRIERES /S P MAISONS-LAFFITTE 19.000 A.BADEL 2000 D souple 21 3 07
Plat 2015-09-18 POISSY MAISONS-LAFFITTE 19.000 A.BADEL 2400 G collant 21 5 07
Plat 2015-09-01 NANCY NANCY 52.000 F.LEFEBVRE 1950 D souple 21 9 11
Plat 2015-04-02 ECURIES DU CH. MAISONS-LAFFITTE 52.000 A.BADEL 2500 D très souple 21 10 12
Plat 2015-03-19 DE LA GASCOGNE SAINT-CLOUD 52.000 A.BADEL 2100 G souple 21 9 10
Plat 2015-03-10 PAYS BASQUE SAINT-CLOUD 52.000 A.BADEL 2400 G très souple 21 8 01
Plat 2015-02-23 PARILLY MARSEILLE-BORELY 26.000 V.GAMBART 2100 G lourd 21 15 01
Plat 2015-02-14 D'ANTIBES CAGNES-SUR-MER 52.000 S.MAILLOT 2400 G collant 21 9 12
Plat 2015-02-04 LAVANDOU CAGNES-SUR-MER 19.000 A.BADEL 2150 très souple 21 16 01
Plat 2015-01-28 CIMIEZ CAGNES-SUR-MER 26.000 A.BADEL 2500 très souple 21 2 02
Plat 2015-01-17 ST DIDIER CAGNES-SUR-MER 15.000 R.SEROR 2000 collant 21 3 01
Plat 2014-11-11 STRASBOURG STRASBOURG 18.000 F.MINARIK 2100 très lourd 21 11 03
Plat 2014-10-25 CLAUDE ROUGET NANTES 20.000 M.GUYON 3100 très souple 21 6 14
Plat 2014-10-14 LOIRE ANGERS EVENTARD 18.000 T.BACHELOT 2300 souple 21 13 04
Plat 2014-09-28 CONSEIL GENERAL STRASBOURG 18.000 F.PRAT 2350 souple 21 15 13
Plat 2014-09-18 VILLERS NANCY NANCY 14.000 A.BADEL 2400 souple 21 4 03
Plat 2014-09-01 DE L'UNIVERSITE LONGCHAMP 16.000 G.FAUCON 3000 bon 21 4 05
Plat 2014-08-19 DERRINSTOWN ST. DEAUVILLE 16.000 L.GROSSO 2000 très souple 21 3 07
Plat 2014-08-07 CYCLOTOURISME VICHY 20.000 J.VICTOIRE 2400 souple 21 4 04
Plat 2014-04-22 MALMAISON MAISONS-LAFFITTE 19.000 T.PICCONE 2500 bon souple 21 10 10
Plat 2014-04-15 MIDI-PYRENEES SAINT-CLOUD 26.000 T.PICCONE 3100 bon 21 2 13
Plat 2014-03-28 DES FRENES FONTAINEBLEAU 19.000 JP.BOISGONTIER 2600 très souple 21 4 01
Plat 2014-03-25 DU ROUSSILLON SAINT-CLOUD 26.000 T.PICCONE 2100 bon 21 5
Plat 2014-03-15 COTEAUX ST-CL. SAINT-CLOUD 26.000 J.TASTAYRE 2400 G souple 21 9
Plat 2014-03-10 FONTAINE ROCH COMPIEGNE 19.000 J.TASTAYRE 2000 collant 21 3 02
Plat 2014-02-26 HANDICAP 4 ANS TOULOUSE 16.000 M.FOREST 2000 lourd 21 9 02
Plat 2014-02-08 STAR APPEAL CAGNES-SUR-MER 22.000 T.PICCONE 2400 collant 21 3 01
Plat 2014-01-29 CIMIEZ CAGNES-SUR-MER 26.000 T.PICCONE 2500 très souple 21 12 02
Plat 2014-01-18 VALLIERES CAGNES-SUR-MER 19.000 T.MESSINA 2400 collant 21 4 03